createdAt,value
2023-02-11T00:00:41.518Z,64.54
2023-02-11T00:01:41.531Z,62.32
2023-02-11T00:02:41.517Z,62.64
2023-02-11T00:03:41.598Z,62.01
2023-02-11T00:04:41.519Z,61.45
2023-02-11T00:05:41.501Z,63.45
2023-02-11T00:06:41.524Z,62.85
2023-02-11T00:07:41.496Z,60.84
2023-02-11T00:08:41.477Z,60.13
2023-02-11T00:09:41.491Z,63.39
2023-02-11T00:10:41.472Z,60.27
2023-02-11T00:11:41.456Z,61.18
2023-02-11T00:12:41.439Z,58.28
2023-02-11T00:13:41.439Z,58.94
2023-02-11T00:14:41.437Z,60.30
2023-02-11T00:15:41.440Z,57.54
2023-02-11T00:16:41.471Z,60.39
2023-02-11T00:17:41.413Z,59.97
2023-02-11T00:18:41.430Z,61.11
2023-02-11T00:19:41.425Z,62.57
2023-02-11T00:20:41.396Z,59.14
2023-02-11T00:21:41.407Z,59.53
2023-02-11T00:22:41.399Z,60.40
2023-02-11T00:23:41.373Z,58.30
2023-02-11T00:24:41.395Z,56.60
2023-02-11T00:25:41.368Z,58.90
2023-02-11T00:26:41.364Z,59.79
2023-02-11T00:27:41.424Z,60.39
2023-02-11T00:28:41.350Z,59.74
2023-02-11T00:29:41.362Z,62.57
2023-02-11T00:30:41.469Z,59.27
2023-02-11T00:31:41.382Z,56.50
2023-02-11T00:32:41.323Z,59.84
2023-02-11T00:33:41.329Z,59.21
2023-02-11T00:34:41.349Z,59.57
2023-02-11T00:35:41.315Z,58.27
2023-02-11T00:36:41.299Z,59.53
2023-02-11T00:37:41.302Z,59.35
2023-02-11T00:38:41.287Z,59.04
2023-02-11T00:39:41.283Z,60.20
2023-02-11T00:40:41.287Z,58.94
2023-02-11T00:41:41.263Z,58.59
2023-02-11T00:42:41.270Z,59.17
2023-02-11T00:43:41.265Z,59.41
2023-02-11T00:44:41.228Z,60.29
2023-02-11T00:45:41.230Z,61.42
2023-02-11T00:46:41.281Z,59.45
2023-02-11T00:47:41.197Z,60.73
2023-02-11T00:48:41.218Z,59.33
2023-02-11T00:49:41.229Z,60.80
2023-02-11T00:50:41.201Z,59.41
2023-02-11T00:51:41.197Z,57.68
2023-02-11T00:52:41.170Z,59.37
2023-02-11T00:53:41.207Z,60.23
2023-02-11T00:54:41.166Z,57.98
2023-02-11T00:55:41.158Z,58.99
2023-02-11T00:56:41.181Z,56.92
2023-02-11T00:57:41.172Z,56.74
2023-02-11T00:58:41.143Z,57.12
2023-02-11T00:59:41.127Z,57.61
2023-02-11T01:00:41.127Z,59.04
2023-02-11T01:01:41.152Z,59.54
2023-02-11T01:02:41.148Z,60.79
2023-02-11T01:03:41.117Z,59.81
2023-02-11T01:04:41.109Z,58.01
2023-02-11T01:05:41.159Z,59.29
2023-02-11T01:06:41.094Z,57.71
2023-02-11T01:07:41.081Z,56.96
2023-02-11T01:08:41.111Z,59.25
2023-02-11T01:09:41.079Z,58.85
2023-02-11T01:10:41.075Z,54.93
2023-02-11T01:11:41.067Z,58.39
2023-02-11T01:12:41.054Z,60.49
2023-02-11T01:13:41.042Z,58.47
2023-02-11T01:14:41.065Z,57.24
2023-02-11T01:15:41.041Z,58.59
2023-02-11T01:16:41.057Z,59.70
2023-02-11T01:17:41.055Z,56.66
2023-02-11T01:18:41.020Z,54.82
2023-02-11T01:19:41.027Z,58.88
2023-02-11T01:20:41.019Z,59.30
2023-02-11T01:21:41.006Z,59.93
2023-02-11T01:22:40.999Z,59.44
2023-02-11T01:23:41.009Z,58.57
2023-02-11T01:24:40.993Z,54.94
2023-02-11T01:25:40.994Z,56.61
2023-02-11T01:26:40.983Z,58.66
2023-02-11T01:27:40.961Z,57.75
2023-02-11T01:28:40.964Z,59.31
2023-02-11T01:29:40.987Z,60.63
2023-02-11T01:30:41.024Z,59.55
2023-02-11T01:31:40.974Z,56.21
2023-02-11T01:32:40.965Z,60.48
2023-02-11T01:33:40.925Z,61.12
2023-02-11T01:34:40.918Z,59.68
2023-02-11T01:35:40.923Z,59.15
2023-02-11T01:36:40.947Z,57.33
2023-02-11T01:37:40.900Z,58.75
2023-02-11T01:38:40.994Z,59.92
2023-02-11T01:39:40.875Z,58.31
2023-02-11T01:40:40.885Z,59.35
2023-02-11T01:41:40.887Z,56.18
2023-02-11T01:42:40.882Z,61.82
2023-02-11T01:43:40.856Z,60.74
2023-02-11T01:44:40.866Z,59.07
2023-02-11T01:45:40.839Z,61.68
2023-02-11T01:46:40.891Z,58.83
2023-02-11T01:47:40.840Z,57.27
2023-02-11T01:48:40.842Z,59.82
2023-02-11T01:49:40.820Z,58.90
2023-02-11T01:50:40.838Z,56.80
2023-02-11T01:51:40.824Z,56.66
2023-02-11T01:52:40.813Z,55.81
2023-02-11T01:53:40.803Z,60.09
2023-02-11T01:54:40.792Z,60.28
2023-02-11T01:55:40.800Z,59.68
2023-02-11T01:56:40.776Z,59.22
2023-02-11T01:57:40.773Z,60.03
2023-02-11T01:58:40.769Z,57.86
2023-02-11T01:59:40.767Z,58.25
2023-02-11T02:00:40.769Z,58.68
2023-02-11T02:01:40.804Z,58.85
2023-02-11T02:02:40.772Z,58.56
2023-02-11T02:03:40.786Z,58.13
2023-02-11T02:04:40.727Z,59.43
2023-02-11T02:05:40.729Z,58.87
2023-02-11T02:06:40.741Z,59.82
2023-02-11T02:07:40.715Z,60.32
2023-02-11T02:08:40.716Z,59.15
2023-02-11T02:09:40.695Z,60.94
2023-02-11T02:10:40.681Z,60.02
2023-02-11T02:11:40.699Z,57.04
2023-02-11T02:12:40.681Z,59.80
2023-02-11T02:13:40.677Z,58.36
2023-02-11T02:14:40.673Z,58.00
2023-02-11T02:15:40.712Z,57.09
2023-02-11T02:16:40.720Z,56.40
2023-02-11T02:17:40.631Z,57.53
2023-02-11T02:18:40.627Z,56.21
2023-02-11T02:19:40.631Z,59.63
2023-02-11T02:20:40.618Z,58.83
2023-02-11T02:21:40.630Z,58.33
2023-02-11T02:22:40.671Z,61.62
2023-02-11T02:23:40.605Z,59.75
2023-02-11T02:24:40.595Z,59.25
2023-02-11T02:25:40.580Z,57.86
2023-02-11T02:26:40.584Z,55.73
2023-02-11T02:27:40.564Z,57.63
2023-02-11T02:28:40.599Z,57.51
2023-02-11T02:29:40.557Z,60.59
2023-02-11T02:30:40.599Z,58.48
2023-02-11T02:31:40.628Z,56.72
2023-02-11T02:32:40.570Z,57.63
2023-02-11T02:33:40.548Z,61.43
2023-02-11T02:34:40.521Z,58.86
2023-02-11T02:35:40.535Z,61.63
2023-02-11T02:36:40.516Z,58.53
2023-02-11T02:37:40.502Z,57.26
2023-02-11T02:38:40.497Z,57.35
2023-02-11T02:39:40.503Z,58.11
2023-02-11T02:40:40.508Z,61.87
2023-02-11T02:41:40.467Z,61.38
2023-02-11T02:42:40.473Z,59.27
2023-02-11T02:43:40.470Z,59.76
2023-02-11T02:44:40.474Z,58.08
2023-02-11T02:45:40.454Z,58.65
2023-02-11T02:46:40.525Z,58.17
2023-02-11T02:47:40.466Z,58.36
2023-02-11T02:48:40.484Z,58.24
2023-02-11T02:49:40.423Z,58.27
2023-02-11T02:50:40.431Z,58.14
2023-02-11T02:51:40.409Z,60.71
2023-02-11T02:52:40.416Z,59.99
2023-02-11T02:53:40.400Z,61.46
2023-02-11T02:54:40.429Z,58.89
2023-02-11T02:55:40.384Z,55.54
2023-02-11T02:56:40.385Z,56.79
2023-02-11T02:57:40.369Z,56.34
2023-02-11T02:58:40.371Z,60.27
2023-02-11T02:59:40.368Z,59.88
2023-02-11T03:00:40.396Z,55.08
2023-02-11T03:01:40.347Z,57.70
2023-02-11T03:02:40.367Z,58.02
2023-02-11T03:03:40.374Z,60.25
2023-02-11T03:04:40.326Z,60.07
2023-02-11T03:05:40.344Z,59.51
2023-02-11T03:06:40.341Z,60.06
2023-02-11T03:07:40.326Z,57.07
2023-02-11T03:08:40.337Z,58.88
2023-02-11T03:09:40.327Z,58.37
2023-02-11T03:10:40.299Z,56.45
2023-02-11T03:11:40.285Z,59.22
2023-02-11T03:12:40.273Z,60.53
2023-02-11T03:13:40.292Z,58.04
2023-02-11T03:14:40.253Z,56.89
2023-02-11T03:15:40.270Z,57.07
2023-02-11T03:16:40.286Z,57.41
2023-02-11T03:17:40.269Z,57.05
2023-02-11T03:18:40.239Z,55.92
2023-02-11T03:19:40.223Z,55.40
2023-02-11T03:20:40.217Z,57.27
2023-02-11T03:21:40.216Z,57.20
2023-02-11T03:22:40.235Z,58.86
2023-02-11T03:23:40.209Z,58.00
2023-02-11T03:24:40.205Z,56.13
2023-02-11T03:25:40.207Z,58.06
2023-02-11T03:26:40.179Z,59.26
2023-02-11T03:27:40.180Z,57.38
2023-02-11T03:28:40.182Z,60.41
2023-02-11T03:29:40.179Z,60.98
2023-02-11T03:30:40.175Z,59.00
2023-02-11T03:31:40.246Z,57.02
2023-02-11T03:32:40.144Z,57.72
2023-02-11T03:33:40.133Z,58.92
2023-02-11T03:34:40.132Z,58.16
2023-02-11T03:35:40.125Z,58.04
2023-02-11T03:36:40.126Z,58.48
2023-02-11T03:37:40.142Z,57.35
2023-02-11T03:38:40.124Z,56.25
2023-02-11T03:39:40.100Z,58.19
2023-02-11T03:40:40.102Z,59.45
2023-02-11T03:41:40.080Z,56.81
2023-02-11T03:42:40.085Z,55.09
2023-02-11T03:43:40.075Z,57.65
2023-02-11T03:44:40.091Z,59.75
2023-02-11T03:45:40.075Z,57.88
2023-02-11T03:46:40.050Z,60.68
2023-02-11T03:47:40.051Z,59.05
2023-02-11T03:48:40.040Z,54.64
2023-02-11T03:49:40.048Z,58.01
2023-02-11T03:50:40.041Z,59.66
2023-02-11T03:51:40.033Z,57.26
2023-02-11T03:52:40.030Z,56.65
2023-02-11T03:53:39.997Z,56.91
2023-02-11T03:54:40.025Z,58.82
2023-02-11T03:55:40.017Z,58.34
2023-02-11T03:56:40.033Z,59.19
2023-02-11T03:57:39.977Z,56.15
2023-02-11T03:58:39.976Z,58.05
2023-02-11T03:59:39.986Z,56.90
2023-02-11T04:00:39.974Z,59.68
2023-02-11T04:01:39.965Z,57.76
2023-02-11T04:02:39.965Z,58.83
2023-02-11T04:03:39.949Z,57.26
2023-02-11T04:04:39.960Z,58.60
2023-02-11T04:05:39.937Z,60.12
2023-02-11T04:06:39.980Z,59.19
2023-02-11T04:07:39.937Z,59.65
2023-02-11T04:08:39.916Z,57.40
2023-02-11T04:09:39.903Z,59.02
2023-02-11T04:10:39.905Z,60.99
2023-02-11T04:11:39.909Z,59.62
2023-02-11T04:12:39.890Z,61.31
2023-02-11T04:13:39.892Z,61.04
2023-02-11T04:14:39.898Z,63.35
2023-02-11T04:15:39.889Z,59.55
2023-02-11T04:16:39.895Z,58.37
2023-02-11T04:17:46.878Z,58.60
2023-02-11T04:18:39.863Z,56.96
2023-02-11T04:19:39.864Z,58.09
2023-02-11T04:20:39.842Z,59.85
2023-02-11T04:21:39.839Z,55.53
2023-02-11T04:22:39.826Z,59.93
2023-02-11T04:23:39.817Z,59.78
2023-02-11T04:24:39.829Z,58.84
2023-02-11T04:25:39.800Z,56.65
2023-02-11T04:26:39.832Z,61.40
2023-02-11T04:27:39.786Z,60.56
2023-02-11T04:28:39.787Z,59.86
2023-02-11T04:29:39.773Z,59.31
2023-02-11T04:30:39.841Z,60.68
2023-02-11T04:31:39.810Z,59.54
2023-02-11T04:32:39.772Z,60.32
2023-02-11T04:33:39.744Z,60.59
2023-02-11T04:34:39.754Z,57.55
2023-02-11T04:35:39.730Z,62.02
2023-02-11T04:36:39.727Z,59.49
2023-02-11T04:37:39.713Z,59.25
2023-02-11T04:38:39.736Z,58.95
2023-02-11T04:39:39.735Z,61.50
2023-02-11T04:40:39.706Z,60.32
2023-02-11T04:41:39.708Z,61.30
2023-02-11T04:42:39.693Z,61.04
2023-02-11T04:43:39.688Z,62.06
2023-02-11T04:44:39.694Z,63.69
2023-02-11T04:45:39.696Z,62.21
2023-02-11T04:46:39.677Z,62.43
2023-02-11T04:47:39.667Z,61.67
2023-02-11T04:48:39.671Z,62.54
2023-02-11T04:49:39.665Z,60.08
2023-02-11T04:50:39.644Z,60.26
2023-02-11T04:51:39.634Z,58.36
2023-02-11T04:52:39.633Z,61.24
2023-02-11T04:53:39.636Z,59.96
2023-02-11T04:54:39.696Z,61.40
2023-02-11T04:55:39.659Z,60.06
2023-02-11T04:56:39.597Z,63.19
2023-02-11T04:57:39.597Z,60.70
2023-02-11T04:58:39.597Z,62.37
2023-02-11T04:59:39.586Z,58.74
2023-02-11T05:00:39.573Z,58.76
2023-02-11T05:01:39.623Z,57.45
2023-02-11T05:02:39.568Z,60.42
2023-02-11T05:03:39.551Z,59.21
2023-02-11T05:04:39.556Z,60.28
2023-02-11T05:05:39.553Z,58.54
2023-02-11T05:06:39.586Z,57.23
2023-02-11T05:07:39.527Z,59.75
2023-02-11T05:08:39.546Z,61.72
2023-02-11T05:09:39.509Z,62.50
2023-02-11T05:10:39.514Z,61.21
2023-02-11T05:11:39.519Z,62.27
2023-02-11T05:12:39.498Z,60.06
2023-02-11T05:13:39.516Z,57.32
2023-02-11T05:14:39.478Z,59.17
2023-02-11T05:15:39.485Z,61.51
2023-02-11T05:16:39.504Z,61.47
2023-02-11T05:17:39.471Z,59.63
2023-02-11T05:18:39.461Z,63.63
2023-02-11T05:19:39.465Z,63.95
2023-02-11T05:20:39.443Z,60.00
2023-02-11T05:21:40.102Z,61.40
2023-02-11T05:22:39.456Z,64.73
2023-02-11T05:23:39.453Z,62.43
2023-02-11T05:24:39.431Z,61.47
2023-02-11T05:25:39.442Z,58.97
2023-02-11T05:26:39.408Z,60.68
2023-02-11T05:27:39.408Z,60.73
2023-02-11T05:28:39.404Z,61.14
2023-02-11T05:29:39.393Z,62.47
2023-02-11T05:30:39.446Z,59.30
2023-02-11T05:31:39.383Z,61.70
2023-02-11T05:32:39.397Z,59.65
2023-02-11T05:33:39.360Z,59.81
2023-02-11T05:34:39.364Z,58.57
2023-02-11T05:35:39.357Z,61.69
2023-02-11T05:36:39.348Z,60.74
2023-02-11T05:37:39.375Z,60.40
2023-02-11T05:38:39.357Z,62.32
2023-02-11T05:39:39.348Z,59.63
2023-02-11T05:40:39.325Z,59.09
2023-02-11T05:41:39.356Z,61.47
2023-02-11T05:42:39.324Z,62.09
2023-02-11T05:43:39.313Z,61.51
2023-02-11T05:44:39.299Z,61.33
2023-02-11T05:45:39.296Z,63.96
2023-02-11T05:46:39.376Z,61.49
2023-02-11T05:47:39.299Z,61.29
2023-02-11T05:48:39.281Z,63.26
2023-02-11T05:49:39.279Z,60.80
2023-02-11T05:50:39.283Z,62.39
2023-02-11T05:51:39.259Z,62.08
2023-02-11T05:52:39.276Z,61.93
2023-02-11T05:53:39.262Z,62.75
2023-02-11T05:54:39.266Z,61.67
2023-02-11T05:55:39.239Z,61.20
2023-02-11T05:56:39.248Z,61.85
2023-02-11T05:57:39.246Z,62.06
2023-02-11T05:58:39.270Z,60.50
2023-02-11T05:59:39.217Z,59.31
2023-02-11T06:00:39.237Z,61.44
2023-02-11T06:01:39.206Z,61.50
2023-02-11T06:02:39.304Z,62.41
2023-02-11T06:03:39.344Z,61.09
2023-02-11T06:04:39.217Z,60.48
2023-02-11T06:05:39.192Z,62.75
2023-02-11T06:06:39.207Z,62.17
2023-02-11T06:07:39.169Z,61.89
2023-02-11T06:08:39.472Z,62.10
2023-02-11T06:09:39.167Z,61.36
2023-02-11T06:10:39.161Z,56.99
2023-02-11T06:11:39.166Z,60.59
2023-02-11T06:12:39.160Z,63.47
2023-02-11T06:13:39.150Z,62.16
2023-02-11T06:14:39.139Z,62.40
2023-02-11T06:15:39.187Z,60.42
2023-02-11T06:16:39.126Z,64.33
2023-02-11T06:17:39.123Z,62.86
2023-02-11T06:18:39.154Z,64.39
2023-02-11T06:19:39.128Z,63.43
2023-02-11T06:20:39.137Z,60.67
2023-02-11T06:21:44.096Z,61.79
2023-02-11T06:22:40.102Z,62.61
2023-02-11T06:23:39.103Z,62.36
2023-02-11T06:24:59.893Z,62.19
2023-02-11T06:25:40.062Z,60.60
2023-02-11T06:26:39.066Z,60.97
2023-02-11T06:27:39.062Z,62.33
2023-02-11T06:28:41.926Z,61.77
2023-02-11T06:29:39.074Z,63.38
2023-02-11T06:30:39.045Z,63.43
2023-02-11T06:31:39.302Z,62.02
2023-02-11T06:32:44.356Z,64.39
2023-02-11T06:33:40.024Z,62.92
2023-02-11T06:34:39.016Z,58.23
2023-02-11T06:35:39.022Z,60.70
2023-02-11T06:36:39.024Z,62.20
2023-02-11T06:37:39.017Z,61.44
2023-02-11T06:38:39.003Z,63.53
2023-02-11T06:39:39.024Z,63.27
2023-02-11T06:40:38.999Z,63.74
2023-02-11T06:41:38.978Z,66.01
2023-02-11T06:42:38.995Z,65.97
2023-02-11T06:43:38.975Z,63.02
2023-02-11T06:44:38.976Z,62.17
2023-02-11T06:45:38.945Z,62.54
2023-02-11T06:46:38.996Z,63.60
2023-02-11T06:47:38.938Z,62.97
2023-02-11T06:48:38.921Z,62.63
2023-02-11T06:49:38.916Z,61.77
2023-02-11T06:50:38.945Z,63.86
2023-02-11T06:51:38.930Z,63.85
2023-02-11T06:52:38.903Z,64.11
2023-02-11T06:53:38.902Z,63.25
2023-02-11T06:54:38.895Z,61.78
2023-02-11T06:55:38.918Z,62.21
2023-02-11T06:56:38.886Z,61.60
2023-02-11T06:57:38.865Z,63.27
2023-02-11T06:58:38.857Z,63.48
2023-02-11T06:59:38.853Z,63.38
2023-02-11T07:00:38.850Z,63.19
2023-02-11T07:01:38.932Z,62.83
2023-02-11T07:02:38.942Z,64.44
2023-02-11T07:03:38.833Z,64.23
2023-02-11T07:04:38.857Z,62.83
2023-02-11T07:05:38.836Z,60.62
2023-02-11T07:06:38.816Z,62.85
2023-02-11T07:07:38.808Z,60.15
2023-02-11T07:08:38.790Z,64.67
2023-02-11T07:09:38.797Z,63.40
2023-02-11T07:10:38.797Z,62.26
2023-02-11T07:11:38.790Z,61.16
2023-02-11T07:12:38.774Z,61.53
2023-02-11T07:13:38.766Z,62.58
2023-02-11T07:14:38.775Z,62.57
2023-02-11T07:15:38.761Z,62.07
2023-02-11T07:16:38.771Z,61.54
2023-02-11T07:17:38.744Z,61.86
2023-02-11T07:18:38.735Z,65.35
2023-02-11T07:19:38.751Z,62.94
2023-02-11T07:20:38.772Z,61.71
2023-02-11T07:21:38.717Z,62.64
2023-02-11T07:22:38.713Z,64.17
2023-02-11T07:23:38.702Z,62.41
2023-02-11T07:24:38.709Z,61.81
2023-02-11T07:25:38.704Z,64.05
2023-02-11T07:26:38.720Z,63.24
2023-02-11T07:27:38.712Z,62.45
2023-02-11T07:28:38.706Z,61.74
2023-02-11T07:29:38.671Z,62.29
2023-02-11T07:30:38.670Z,63.86
2023-02-11T07:31:38.790Z,63.21
2023-02-11T07:32:38.677Z,63.38
2023-02-11T07:33:38.672Z,64.40
2023-02-11T07:34:38.705Z,62.89
2023-02-11T07:35:40.990Z,60.67
2023-02-11T07:36:38.628Z,63.07
2023-02-11T07:37:38.649Z,65.43
2023-02-11T07:38:38.614Z,63.86
2023-02-11T07:39:38.607Z,62.29
2023-02-11T07:40:38.604Z,63.69
2023-02-11T07:41:38.613Z,62.24
2023-02-11T07:42:38.603Z,63.65
2023-02-11T07:43:38.596Z,63.47
2023-02-11T07:44:38.576Z,63.42
2023-02-11T07:45:38.598Z,62.24
2023-02-11T07:46:38.616Z,62.47
2023-02-11T07:47:38.551Z,63.52
2023-02-11T07:48:38.597Z,63.89
2023-02-11T07:49:38.557Z,62.09
2023-02-11T07:50:38.585Z,63.28
2023-02-11T07:51:38.544Z,63.33
2023-02-11T07:52:38.533Z,63.19
2023-02-11T07:53:38.524Z,62.78
2023-02-11T07:54:38.543Z,62.90
2023-02-11T07:55:38.521Z,62.76
2023-02-11T07:56:38.546Z,63.74
2023-02-11T07:57:38.536Z,62.72
2023-02-11T07:58:38.517Z,63.02
2023-02-11T07:59:38.492Z,64.98
2023-02-11T08:00:38.527Z,64.09
2023-02-11T08:01:38.482Z,64.34
2023-02-11T08:02:38.466Z,64.90
2023-02-11T08:03:38.472Z,63.48
2023-02-11T08:04:38.463Z,62.98
2023-02-11T08:05:38.471Z,62.07
2023-02-11T08:06:38.461Z,63.46
2023-02-11T08:07:38.477Z,63.64
2023-02-11T08:08:38.466Z,62.93
2023-02-11T08:09:38.419Z,62.88
2023-02-11T08:10:38.418Z,65.39
2023-02-11T08:11:38.451Z,64.37
2023-02-11T08:12:38.448Z,62.80
2023-02-11T08:13:38.406Z,61.65
2023-02-11T08:14:38.416Z,63.10
2023-02-11T08:15:38.385Z,64.45
2023-02-11T08:16:38.458Z,63.72
2023-02-11T08:17:38.382Z,63.91
2023-02-11T08:18:38.388Z,63.33
2023-02-11T08:19:38.357Z,64.38
2023-02-11T08:20:38.361Z,62.39
2023-02-11T08:21:38.350Z,62.72
2023-02-11T08:22:38.358Z,63.55
2023-02-11T08:23:38.342Z,64.01
2023-02-11T08:24:38.358Z,64.27
2023-02-11T08:25:38.327Z,63.61
2023-02-11T08:26:38.355Z,62.81
2023-02-11T08:27:38.321Z,64.55
2023-02-11T08:28:38.309Z,63.61
2023-02-11T08:29:38.331Z,64.47
2023-02-11T08:30:38.322Z,63.09
2023-02-11T08:31:38.369Z,64.42
2023-02-11T08:32:38.306Z,63.90
2023-02-11T08:33:38.288Z,65.22
2023-02-11T08:34:38.280Z,64.52
2023-02-11T08:35:38.305Z,64.23
2023-02-11T08:36:38.272Z,64.46
2023-02-11T08:37:38.256Z,64.26
2023-02-11T08:38:38.255Z,63.15
2023-02-11T08:39:38.232Z,62.52
2023-02-11T08:40:38.242Z,65.23
2023-02-11T08:41:38.267Z,65.95
2023-02-11T08:42:38.228Z,63.28
2023-02-11T08:43:38.206Z,63.04
2023-02-11T08:44:38.198Z,63.37
2023-02-11T08:45:38.257Z,64.49
2023-02-11T08:46:38.201Z,64.51
2023-02-11T08:47:38.203Z,64.67
2023-02-11T08:48:38.174Z,63.93
2023-02-11T08:49:38.180Z,64.74
2023-02-11T08:50:38.180Z,62.73
2023-02-11T08:51:38.172Z,64.05
2023-02-11T08:52:38.159Z,63.99
2023-02-11T08:53:38.175Z,63.43
2023-02-11T08:54:38.145Z,65.30
2023-02-11T08:55:38.137Z,66.49
2023-02-11T08:56:38.130Z,64.73
2023-02-11T08:57:38.151Z,63.49
2023-02-11T08:58:38.135Z,63.96
2023-02-11T08:59:38.109Z,66.33
2023-02-11T09:00:38.118Z,63.65
2023-02-11T09:01:38.212Z,63.87
2023-02-11T09:02:38.157Z,62.88
2023-02-11T09:03:38.083Z,63.32
2023-02-11T09:04:38.073Z,63.41
2023-02-11T09:05:38.069Z,64.69
2023-02-11T09:06:38.121Z,64.78
2023-02-11T09:07:38.047Z,64.98
2023-02-11T09:08:38.057Z,64.64
2023-02-11T09:09:38.046Z,63.67
2023-02-11T09:10:38.043Z,64.64
2023-02-11T09:11:38.032Z,62.91
2023-02-11T09:12:38.058Z,62.36
2023-02-11T09:13:38.012Z,64.37
2023-02-11T09:14:38.032Z,62.92
2023-02-11T09:15:37.992Z,63.22
2023-02-11T09:16:38.048Z,61.95
2023-02-11T09:17:37.974Z,65.88
2023-02-11T09:18:38.007Z,64.23
2023-02-11T09:19:37.971Z,64.07
2023-02-11T09:20:37.960Z,65.14
2023-02-11T09:21:37.949Z,65.40
2023-02-11T09:22:37.950Z,63.96
2023-02-11T09:23:37.940Z,64.46
2023-02-11T09:24:37.954Z,63.14
2023-02-11T09:25:37.945Z,63.16
2023-02-11T09:26:37.931Z,63.80
2023-02-11T09:27:37.944Z,63.90
2023-02-11T09:28:37.974Z,63.00
2023-02-11T09:29:37.917Z,63.76
2023-02-11T09:30:37.998Z,63.37
2023-02-11T09:31:38.037Z,63.30
2023-02-11T09:32:37.885Z,64.36
2023-02-11T09:33:37.893Z,63.15
2023-02-11T09:34:37.893Z,65.06
2023-02-11T09:35:37.885Z,62.76
2023-02-11T09:36:37.885Z,62.68
2023-02-11T09:37:37.852Z,65.39
2023-02-11T09:38:37.852Z,63.61
2023-02-11T09:39:37.847Z,62.84
2023-02-11T09:40:37.874Z,63.91
2023-02-11T09:41:37.870Z,60.06
2023-02-11T09:42:37.834Z,62.77
2023-02-11T09:43:37.838Z,62.89
2023-02-11T09:44:37.814Z,62.33
2023-02-11T09:45:37.809Z,64.08
2023-02-11T09:46:37.844Z,63.71
2023-02-11T09:47:37.822Z,63.63
2023-02-11T09:48:37.819Z,64.22
2023-02-11T09:49:37.789Z,64.34
2023-02-11T09:50:37.789Z,63.90
2023-02-11T09:51:37.792Z,64.65
2023-02-11T09:52:37.798Z,63.86
2023-02-11T09:53:37.769Z,63.57
2023-02-11T09:54:37.759Z,64.86
2023-02-11T09:55:37.831Z,64.72
2023-02-11T09:56:37.744Z,63.71
2023-02-11T09:57:37.741Z,62.91
2023-02-11T09:58:37.728Z,61.86
2023-02-11T09:59:37.718Z,62.46
2023-02-11T10:00:37.763Z,62.07
2023-02-11T10:01:37.822Z,63.09
2023-02-11T10:02:37.711Z,63.36
2023-02-11T10:03:37.748Z,63.62
2023-02-11T10:04:37.756Z,64.28
2023-02-11T10:05:37.719Z,65.44
2023-02-11T10:06:37.675Z,64.52
2023-02-11T10:07:37.685Z,63.02
2023-02-11T10:08:37.695Z,62.30
2023-02-11T10:09:37.690Z,62.88
2023-02-11T10:10:37.667Z,63.24
2023-02-11T10:11:37.655Z,63.43
2023-02-11T10:12:37.655Z,62.93
2023-02-11T10:13:37.644Z,64.88
2023-02-11T10:14:37.685Z,64.03
2023-02-11T10:15:37.655Z,63.83
2023-02-11T10:16:37.625Z,64.40
2023-02-11T10:17:37.614Z,63.46
2023-02-11T10:18:44.663Z,63.71
2023-02-11T10:19:37.606Z,62.61
2023-02-11T10:20:37.609Z,62.41
2023-02-11T10:21:37.586Z,65.19
2023-02-11T10:22:37.615Z,64.78
2023-02-11T10:23:37.573Z,64.60
2023-02-11T10:24:37.575Z,64.48
2023-02-11T10:25:37.599Z,64.07
2023-02-11T10:26:37.557Z,62.28
2023-02-11T10:27:37.551Z,63.10
2023-02-11T10:28:37.590Z,62.90
2023-02-11T10:29:37.552Z,64.15
2023-02-11T10:30:37.588Z,61.37
2023-02-11T10:31:37.725Z,64.05
2023-02-11T10:32:37.526Z,63.08
2023-02-11T10:33:37.550Z,64.95
2023-02-11T10:34:37.520Z,63.34
2023-02-11T10:35:37.508Z,61.97
2023-02-11T10:36:37.501Z,64.04
2023-02-11T10:37:37.514Z,63.39
2023-02-11T10:38:37.523Z,64.83
2023-02-11T10:39:37.479Z,63.28
2023-02-11T10:40:37.489Z,63.21
2023-02-11T10:41:37.479Z,62.15
2023-02-11T10:42:37.480Z,62.73
2023-02-11T10:43:37.467Z,61.96
2023-02-11T10:44:37.482Z,63.90
2023-02-11T10:45:37.453Z,63.94
2023-02-11T10:46:37.505Z,62.25
2023-02-11T10:47:37.446Z,60.74
2023-02-11T10:48:37.447Z,62.56
2023-02-11T10:49:37.432Z,62.79
2023-02-11T10:50:37.454Z,62.18
2023-02-11T10:51:37.428Z,62.91
2023-02-11T10:52:37.419Z,60.89
2023-02-11T10:53:37.412Z,63.33
2023-02-11T10:54:37.419Z,62.93
2023-02-11T10:55:37.396Z,62.64
2023-02-11T10:56:37.428Z,63.88
2023-02-11T10:57:37.399Z,63.37
2023-02-11T10:58:37.384Z,62.08
2023-02-11T10:59:37.380Z,63.80
2023-02-11T11:00:37.374Z,61.58
2023-02-11T11:01:37.387Z,62.09
2023-02-11T11:02:37.382Z,63.00
2023-02-11T11:03:37.351Z,63.51
2023-02-11T11:04:37.412Z,63.25
2023-02-11T11:05:37.373Z,62.36
2023-02-11T11:06:37.351Z,63.82
2023-02-11T11:07:37.344Z,63.08
2023-02-11T11:08:37.327Z,63.00
2023-02-11T11:09:37.333Z,63.22
2023-02-11T11:10:37.319Z,63.29
2023-02-11T11:11:37.306Z,64.13
2023-02-11T11:12:38.608Z,62.34
2023-02-11T11:13:37.293Z,62.73
2023-02-11T11:14:37.288Z,63.81
2023-02-11T11:15:37.327Z,61.02
2023-02-11T11:16:37.288Z,63.07
2023-02-11T11:17:37.285Z,62.18
2023-02-11T11:18:37.308Z,62.56
2023-02-11T11:19:37.260Z,64.22
2023-02-11T11:20:37.285Z,61.11
2023-02-11T11:21:37.244Z,60.28
2023-02-11T11:22:37.256Z,62.20
2023-02-11T11:23:37.253Z,62.46
2023-02-11T11:24:37.246Z,61.07
2023-02-11T11:25:37.226Z,61.39
2023-02-11T11:26:37.241Z,60.88
2023-02-11T11:27:37.207Z,60.19
2023-02-11T11:28:37.240Z,61.33
2023-02-11T11:29:37.219Z,60.86
2023-02-11T11:30:37.224Z,60.55
2023-02-11T11:31:37.323Z,61.89
2023-02-11T11:32:37.197Z,61.39
2023-02-11T11:33:37.170Z,62.58
2023-02-11T11:34:37.166Z,61.31
2023-02-11T11:35:37.156Z,60.48
2023-02-11T11:36:37.166Z,61.97
2023-02-11T11:37:37.160Z,60.13
2023-02-11T11:38:37.136Z,62.52
2023-02-11T11:39:37.131Z,60.15
2023-02-11T11:40:37.124Z,59.71
2023-02-11T11:41:37.133Z,60.34
2023-02-11T11:42:37.152Z,61.10
2023-02-11T11:43:37.104Z,61.21
2023-02-11T11:44:37.134Z,59.87
2023-02-11T11:45:37.085Z,61.21
2023-02-11T11:46:37.147Z,59.99
2023-02-11T11:47:37.080Z,60.32
2023-02-11T11:48:37.085Z,60.13
2023-02-11T11:49:37.081Z,60.75
2023-02-11T11:50:37.076Z,61.13
2023-02-11T11:51:37.065Z,62.05
2023-02-11T11:52:37.053Z,60.94
2023-02-11T11:53:37.045Z,60.12
2023-02-11T11:54:37.039Z,61.41
2023-02-11T11:55:37.045Z,61.39
2023-02-11T11:56:37.030Z,60.75
2023-02-11T11:57:37.034Z,60.63
2023-02-11T11:58:37.023Z,60.52
2023-02-11T11:59:37.012Z,60.63
2023-02-11T12:00:37.029Z,61.26
2023-02-11T12:01:37.039Z,60.56
2023-02-11T12:02:36.993Z,61.98
2023-02-11T12:03:37.009Z,60.55
2023-02-11T12:04:36.981Z,59.24
2023-02-11T12:05:36.987Z,59.24
2023-02-11T12:06:36.996Z,61.27
2023-02-11T12:07:37.028Z,60.93
2023-02-11T12:08:36.968Z,60.75
2023-02-11T12:09:36.956Z,60.68
2023-02-11T12:10:36.949Z,60.52
2023-02-11T12:11:36.944Z,61.60
2023-02-11T12:12:36.940Z,62.44
2023-02-11T12:13:36.952Z,61.60
2023-02-11T12:14:36.949Z,60.94
2023-02-11T12:15:36.924Z,60.21
2023-02-11T12:16:36.966Z,59.64
2023-02-11T12:17:36.909Z,61.14
2023-02-11T12:18:36.917Z,61.50
2023-02-11T12:19:36.892Z,60.45
2023-02-11T12:20:36.923Z,59.50
2023-02-11T12:21:36.883Z,60.74
2023-02-11T12:22:36.895Z,59.60
2023-02-11T12:23:36.903Z,60.56
2023-02-11T12:24:36.876Z,59.47
2023-02-11T12:25:36.885Z,61.16
2023-02-11T12:26:36.860Z,59.67
2023-02-11T12:27:36.853Z,61.19
2023-02-11T12:28:36.901Z,59.94
2023-02-11T12:29:36.879Z,58.10
2023-02-11T12:30:36.861Z,60.09
2023-02-11T12:31:36.861Z,60.49
2023-02-11T12:32:36.825Z,59.09
2023-02-11T12:33:36.821Z,60.06
2023-02-11T12:34:36.819Z,59.21
2023-02-11T12:35:36.830Z,59.36
2023-02-11T12:36:36.810Z,59.75
2023-02-11T12:37:36.804Z,61.03
2023-02-11T12:38:36.810Z,60.33
2023-02-11T12:39:36.788Z,59.98
2023-02-11T12:40:36.803Z,60.27
2023-02-11T12:41:36.774Z,61.23
2023-02-11T12:42:36.793Z,60.62
2023-02-11T12:43:36.769Z,60.76
2023-02-11T12:44:36.759Z,59.10
2023-02-11T12:45:36.779Z,57.94
2023-02-11T12:46:36.759Z,59.91
2023-02-11T12:47:36.751Z,60.17
2023-02-11T12:48:36.762Z,60.51
2023-02-11T12:49:36.760Z,60.45
2023-02-11T12:50:36.751Z,60.14
2023-02-11T12:51:36.734Z,61.22
2023-02-11T12:52:36.725Z,63.67